Time;durP1;ratioP1;P1;durP2;ratioP2;P2;SDS_P1;SDS_P2;PMS_P1;PMS_P2;Temp;Humidity;BMP_temperature;BMP_pressure;BME280_temperature;BME280_humidity;BME280_pressure;Samples;Min_cycle;Max_cycle;Signal;HPM_P1;HPM_P2
2021/06/11 00:00:08;;;;;;;13.77;10.70;;;;;;;20.92;100.00;100923.09;4919993;29;20024;-75
2021/06/11 00:02:54;;;;;;;12.90;10.18;;;;;;;20.90;100.00;100922.25;4919142;29;20036;-77
2021/06/11 00:05:40;;;;;;;14.45;10.10;;;;;;;21.09;100.00;100922.97;4918831;29;20082;-76
2021/06/11 00:08:28;;;;;;;14.80;10.43;;;;;;;20.79;100.00;100921.16;4907701;29;20051;-77
2021/06/11 00:11:14;;;;;;;13.02;10.93;;;;;;;20.87;100.00;100926.91;4918714;29;20397;-76
2021/06/11 00:13:59;;;;;;;11.88;10.15;;;;;;;21.05;100.00;100925.94;4906132;29;20118;-75
2021/06/11 00:16:45;;;;;;;15.27;10.40;;;;;;;21.18;100.00;100926.94;4918609;29;20047;-76
2021/06/11 00:19:31;;;;;;;13.75;10.88;;;;;;;21.02;100.00;100934.09;4918888;29;20040;-76
2021/06/11 00:22:17;;;;;;;15.35;11.30;;;;;;;20.77;100.00;100929.22;4918710;29;20060;-77
2021/06/11 00:25:06;;;;;;;15.93;10.88;;;;;;;21.13;100.00;100929.84;4918827;29;20032;-76
2021/06/11 00:27:54;;;;;;;13.65;10.25;;;;;;;21.03;100.00;100925.13;4906549;29;20417;-76
2021/06/11 00:30:40;;;;;;;15.80;11.00;;;;;;;21.31;100.00;100925.28;4906235;29;20103;-77
2021/06/11 00:33:26;;;;;;;13.10;10.88;;;;;;;21.22;100.00;100918.66;4918485;29;20059;-77
2021/06/11 00:36:12;;;;;;;13.00;10.30;;;;;;;21.25;100.00;100920.28;4919298;29;20465;-76
2021/06/11 00:38:57;;;;;;;15.45;10.20;;;;;;;21.50;100.00;100926.75;4919072;29;20036;-76
2021/06/11 00:41:43;;;;;;;14.50;9.75;;;;;;;21.36;100.00;100925.84;4918822;29;20024;-75
2021/06/11 00:44:29;;;;;;;13.52;9.88;;;;;;;21.46;100.00;100927.88;4920165;29;20129;-75
2021/06/11 00:47:15;;;;;;;11.40;9.25;;;;;;;21.51;100.00;100919.63;4920650;29;20028;-75
2021/06/11 00:50:01;;;;;;;14.40;10.00;;;;;;;21.50;100.00;100929.41;4920792;29;20114;-75
2021/06/11 00:52:46;;;;;;;12.30;8.93;;;;;;;21.59;100.00;100928.91;4918855;29;20072;-76
2021/06/11 00:55:32;;;;;;;13.43;9.40;;;;;;;21.50;100.00;100926.75;4921080;29;20035;-75
2021/06/11 00:58:18;;;;;;;14.77;9.95;;;;;;;21.65;100.00;100927.66;4919872;29;20028;-76
2021/06/11 01:01:04;;;;;;;13.95;9.65;;;;;;;21.67;100.00;100923.97;4906431;29;20339;-75
2021/06/11 01:03:50;;;;;;;13.77;9.95;;;;;;;21.67;100.00;100928.44;4919522;29;20107;-76
2021/06/11 01:06:40;;;;;;;11.82;9.10;;;;;;;21.74;100.00;100916.50;4919710;29;20032;-75
2021/06/11 01:09:26;;;;;;;12.65;9.25;;;;;;;21.64;100.00;100926.81;4905755;29;20098;-76
2021/06/11 01:12:14;;;;;;;14.25;10.20;;;;;;;21.43;100.00;100914.75;4904787;29;20111;-76
2021/06/11 01:15:03;;;;;;;13.18;9.82;;;;;;;21.28;100.00;100914.78;4920019;29;20036;-76
2021/06/11 01:17:52;;;;;;;10.40;9.25;;;;;;;21.25;100.00;100907.81;4918771;29;20039;-76
2021/06/11 01:20:38;;;;;;;13.73;10.18;;;;;;;21.23;100.00;100904.41;4917818;29;20322;-76
2021/06/11 01:23:32;;;;;;;12.45;10.93;;;;;;;21.46;100.00;100905.72;4917468;29;20039;-76
2021/06/11 01:26:38;;;;;;;11.80;9.52;;;;;;;21.39;100.00;100899.03;4918430;29;20035;-76
2021/06/11 01:29:26;;;;;;;12.82;10.75;;;;;;;21.28;100.00;100897.00;4917638;29;20042;-76
2021/06/11 01:32:14;;;;;;;15.48;11.35;;;;;;;21.11;100.00;100894.44;4904781;29;20472;-77
2021/06/11 01:35:05;;;;;;;15.90;11.70;;;;;;;21.26;100.00;100888.22;4918794;29;20110;-76
2021/06/11 01:37:59;;;;;;;15.77;10.98;;;;;;;21.30;100.00;100892.41;4906055;29;20036;-76
2021/06/11 01:40:47;;;;;;;15.93;11.18;;;;;;;21.39;100.00;100894.56;4918642;29;20500;-76
2021/06/11 01:43:34;;;;;;;13.90;11.77;;;;;;;21.00;100.00;100902.19;4919329;29;20036;-75
2021/06/11 01:46:24;;;;;;;13.75;11.85;;;;;;;21.46;100.00;100906.56;4905601;29;20446;-75
2021/06/11 01:49:11;;;;;;;12.10;10.75;;;;;;;21.18;100.00;100898.47;4905709;29;20040;-75
2021/06/11 01:52:01;;;;;;;16.60;11.68;;;;;;;21.22;100.00;100908.00;4904833;29;20458;-75
2021/06/11 01:54:47;;;;;;;17.30;11.52;;;;;;;21.00;100.00;100898.66;4918442;29;20028;-75
2021/06/11 01:57:34;;;;;;;15.52;12.32;;;;;;;20.81;100.00;100905.97;4919579;29;20025;-75
2021/06/11 02:00:20;;;;;;;15.00;11.70;;;;;;;20.69;100.00;100906.66;4918368;29;20043;-75
2021/06/11 02:03:07;;;;;;;14.20;10.73;;;;;;;20.80;100.00;100899.78;4904911;29;20347;-75
2021/06/11 02:05:53;;;;;;;13.57;10.75;;;;;;;20.73;100.00;100897.56;4904372;29;20493;-75
2021/06/11 02:08:39;;;;;;;13.68;11.32;;;;;;;20.35;100.00;100893.47;4904246;29;20032;-76
2021/06/11 02:11:26;;;;;;;16.00;11.45;;;;;;;20.43;100.00;100878.81;4917314;29;20084;-76
2021/06/11 02:14:14;;;;;;;15.20;12.10;;;;;;;20.27;100.00;100885.03;4904421;29;20036;-76
2021/06/11 02:17:02;;;;;;;14.07;11.75;;;;;;;20.28;100.00;100886.75;4918092;29;20355;-75
2021/06/11 02:19:48;;;;;;;13.20;11.02;;;;;;;20.59;100.00;100870.81;4905267;29;20028;-75
2021/06/11 02:22:37;;;;;;;16.58;11.73;;;;;;;20.56;100.00;100873.66;4908914;29;20648;-75
2021/06/11 02:25:25;;;;;;;12.98;11.07;;;;;;;20.78;100.00;100877.69;4922549;29;20480;-75
2021/06/11 02:28:15;;;;;;;16.98;12.07;;;;;;;20.92;100.00;100876.94;4922153;29;20040;-75
2021/06/11 02:31:01;;;;;;;18.52;12.63;;;;;;;20.80;100.00;100878.47;4907895;29;20106;-75
2021/06/11 02:33:47;;;;;;;16.35;12.73;;;;;;;20.52;100.00;100882.75;4920494;29;20470;-75
2021/06/11 02:36:34;;;;;;;16.27;11.98;;;;;;;20.67;100.00;100888.09;4908629;29;20517;-76
2021/06/11 02:39:20;;;;;;;14.73;11.48;;;;;;;20.75;100.00;100885.00;4908148;29;20028;-76
2021/06/11 02:42:08;;;;;;;15.82;11.70;;;;;;;20.78;100.00;100887.50;4907242;29;20071;-75
2021/06/11 02:44:57;;;;;;;16.88;12.13;;;;;;;21.01;100.00;100890.59;4922273;29;20032;-75
2021/06/11 02:47:49;;;;;;;14.70;12.18;;;;;;;21.33;100.00;100884.25;4920095;29;20024;-75
2021/06/11 02:50:44;;;;;;;16.38;11.52;;;;;;;21.09;100.00;100899.00;4921701;29;20027;-76
2021/06/11 02:53:32;;;;;;;15.55;11.32;;;;;;;21.10;100.00;100898.03;4920296;29;20052;-75
2021/06/11 02:56:33;;;;;;;16.38;12.68;;;;;;;21.30;100.00;100899.56;4922766;29;20035;-75
2021/06/11 02:59:23;;;;;;;21.42;12.38;;;;;;;20.87;100.00;100895.81;4920358;29;20051;-76
2021/06/11 03:02:13;;;;;;;16.50;12.15;;;;;;;21.11;100.00;100899.78;4921882;29;20091;-76
2021/06/11 03:05:01;;;;;;;14.80;11.35;;;;;;;21.24;100.00;100906.09;4921247;29;20039;-76
2021/06/11 03:07:51;;;;;;;13.75;11.23;;;;;;;21.34;100.00;100903.78;4920396;29;20039;-76
2021/06/11 03:10:40;;;;;;;13.57;12.13;;;;;;;21.51;100.00;100908.97;4906683;29;20493;-75
2021/06/11 03:13:28;;;;;;;19.65;11.60;;;;;;;21.11;100.00;100905.13;4920212;29;20445;-76
2021/06/11 03:16:14;;;;;;;16.92;12.25;;;;;;;21.27;100.00;100905.94;4920292;29;20047;-76
2021/06/11 03:19:09;;;;;;;16.38;11.82;;;;;;;21.27;100.00;100919.28;4907513;29;20115;-75
2021/06/11 03:22:06;;;;;;;15.27;11.43;;;;;;;21.27;100.00;100915.72;4907122;29;20059;-75
2021/06/11 03:25:03;;;;;;;13.15;11.00;;;;;;;21.27;100.00;100921.06;4921665;29;20031;-75
2021/06/11 03:27:54;;;;;;;14.68;11.20;;;;;;;21.25;100.00;100918.47;4920038;29;20024;-76
2021/06/11 03:30:47;;;;;;;13.68;11.00;;;;;;;21.21;100.00;100921.41;4919587;29;20032;-76
2021/06/11 03:33:37;;;;;;;14.75;11.32;;;;;;;21.27;100.00;100918.41;4907779;29;20063;-75
2021/06/11 03:36:31;;;;;;;13.95;10.60;;;;;;;20.72;100.00;100917.13;4919348;29;20095;-76
2021/06/11 03:39:30;;;;;;;14.50;10.93;;;;;;;20.90;100.00;100916.09;4919737;29;20036;-76
2021/06/11 03:42:17;;;;;;;13.25;10.52;;;;;;;21.18;100.00;100921.59;4906287;29;20043;-76
2021/06/11 03:45:04;;;;;;;13.95;10.55;;;;;;;21.18;100.00;100917.09;4919996;29;20032;-76
2021/06/11 03:47:51;;;;;;;15.82;11.13;;;;;;;21.34;100.00;100922.44;4906377;29;20103;-76
2021/06/11 03:50:40;;;;;;;14.05;10.93;;;;;;;21.08;100.00;100931.06;4921193;29;20056;-75
2021/06/11 03:53:29;;;;;;;16.77;11.18;;;;;;;21.05;100.00;100926.75;4906819;29;20028;-76
2021/06/11 03:56:17;;;;;;;14.00;11.25;;;;;;;21.17;100.00;100934.06;4919734;29;20040;-76
2021/06/11 03:59:04;;;;;;;15.00;11.10;;;;;;;21.15;100.00;100932.44;4907243;29;20062;-76
2021/06/11 04:01:51;;;;;;;15.85;10.63;;;;;;;20.87;100.00;100937.56;4920008;29;20037;-76
2021/06/11 04:04:37;;;;;;;16.45;10.30;;;;;;;20.68;100.00;100934.22;4919447;29;20036;-76
2021/06/11 04:07:28;;;;;;;14.15;10.40;;;;;;;21.26;100.00;100935.34;4919469;29;20036;-75
2021/06/11 04:10:20;;;;;;;15.93;10.27;;;;;;;21.36;100.00;100941.84;4906955;29;20039;-76
2021/06/11 04:13:18;;;;;;;14.07;10.00;;;;;;;21.13;100.00;100935.19;4918765;29;20020;-76
2021/06/11 04:16:08;;;;;;;12.40;10.40;;;;;;;21.31;100.00;100930.59;4920374;29;20099;-77
2021/06/11 04:18:57;;;;;;;15.00;9.93;;;;;;;21.37;100.00;100938.22;4919938;29;20028;-77
2021/06/11 04:21:46;;;;;;;14.07;11.07;;;;;;;21.43;100.00;100941.41;4919717;29;20032;-75
2021/06/11 04:24:35;;;;;;;11.23;10.02;;;;;;;21.45;100.00;100936.84;4919545;29;20099;-77
2021/06/11 04:27:21;;;;;;;16.42;10.82;;;;;;;21.35;100.00;100933.00;4918519;29;20060;-75
2021/06/11 04:30:09;;;;;;;12.07;10.02;;;;;;;21.52;100.00;100940.88;4919922;29;20468;-76
2021/06/11 04:32:56;;;;;;;15.80;10.65;;;;;;;21.53;100.00;100942.59;4920072;29;20398;-76
2021/06/11 04:35:42;;;;;;;11.43;9.77;;;;;;;21.79;100.00;100955.25;4918362;29;20060;-76
2021/06/11 04:38:28;;;;;;;15.23;9.68;;;;;;;21.59;100.00;100955.56;4918443;29;20027;-76
2021/06/11 04:41:13;;;;;;;14.55;10.55;;;;;;;21.99;100.00;100949.56;4919171;29;20429;-76
2021/06/11 04:44:01;;;;;;;14.85;10.50;;;;;;;21.43;100.00;100956.53;4905264;29;20036;-76
2021/06/11 04:46:47;;;;;;;13.55;11.07;;;;;;;21.47;100.00;100950.97;4905255;29;20036;-76
2021/06/11 04:49:33;;;;;;;13.93;10.63;;;;;;;21.04;100.00;100950.81;4918267;29;20035;-76
2021/06/11 04:52:18;;;;;;;18.90;10.50;;;;;;;21.75;100.00;100950.22;4918164;29;20059;-76
2021/06/11 04:55:05;;;;;;;15.85;11.40;;;;;;;22.12;100.00;100949.69;4905250;29;20036;-75
2021/06/11 04:57:52;;;;;;;14.75;11.05;;;;;;;22.33;100.00;100959.06;4918968;29;20512;-76
2021/06/11 05:00:37;;;;;;;17.00;11.60;;;;;;;22.08;100.00;100956.19;4918462;29;20028;-76
2021/06/11 05:03:23;;;;;;;18.58;12.35;;;;;;;21.97;100.00;100958.63;4904926;29;20028;-76
2021/06/11 05:06:09;;;;;;;18.75;12.07;;;;;;;21.99;100.00;100970.91;4918887;29;20056;-76
2021/06/11 05:08:55;;;;;;;20.52;12.63;;;;;;;22.47;100.00;100975.97;4905749;29;20036;-76
2021/06/11 05:11:41;;;;;;;21.40;13.80;;;;;;;22.00;100.00;100983.34;4918174;29;20426;-76
2021/06/11 05:14:26;;;;;;;18.77;12.88;;;;;;;22.47;100.00;100983.97;4918489;29;20071;-76
2021/06/11 05:17:12;;;;;;;17.95;14.05;;;;;;;23.07;100.00;100981.94;4918219;29;20039;-77
2021/06/11 05:19:58;;;;;;;21.73;13.77;;;;;;;22.88;100.00;100989.41;4917759;29;20069;-77
2021/06/11 05:22:44;;;;;;;14.45;11.18;;;;;;;22.85;100.00;100995.81;4917459;29;20036;-76
2021/06/11 05:25:30;;;;;;;16.33;11.80;;;;;;;22.87;100.00;100999.22;4918474;29;20047;-76
2021/06/11 05:28:17;;;;;;;16.88;11.10;;;;;;;23.01;100.00;101007.22;4918329;29;20050;-75
2021/06/11 05:31:03;;;;;;;16.70;10.90;;;;;;;23.32;100.00;101004.31;4919168;29;20052;-76
2021/06/11 05:33:50;;;;;;;17.63;13.20;;;;;;;23.04;100.00;101007.03;4905789;29;20529;-76
2021/06/11 05:36:36;;;;;;;20.52;13.10;;;;;;;22.69;100.00;101005.72;4905180;29;20024;-76
2021/06/11 05:39:22;;;;;;;14.38;12.18;;;;;;;22.86;100.00;101010.88;4917468;29;20114;-76
2021/06/11 05:42:07;;;;;;;21.67;12.98;;;;;;;23.43;100.00;101007.13;4918162;29;20123;-77
2021/06/11 05:44:53;;;;;;;17.15;12.60;;;;;;;22.85;100.00;101009.16;4918423;29;20107;-76
2021/06/11 05:47:40;;;;;;;20.55;15.13;;;;;;;22.62;100.00;101020.41;4903915;29;20457;-76
2021/06/11 05:50:27;;;;;;;23.30;16.42;;;;;;;22.99;100.00;101014.47;4904462;29;20409;-76
2021/06/11 05:53:12;;;;;;;23.38;16.55;;;;;;;22.90;100.00;101025.75;4918702;29;20024;-76
2021/06/11 05:56:00;;;;;;;22.02;15.98;;;;;;;22.94;100.00;101018.38;4920518;29;20413;-76
2021/06/11 05:58:47;;;;;;;21.83;15.95;;;;;;;23.21;100.00;101020.22;4920840;29;20043;-75
2021/06/11 06:01:33;;;;;;;24.58;16.13;;;;;;;23.40;100.00;101019.88;4921046;29;20430;-76
2021/06/11 06:04:18;;;;;;;24.55;15.00;;;;;;;23.66;100.00;101027.00;4920732;29;20115;-77
2021/06/11 06:07:04;;;;;;;22.85;14.48;;;;;;;23.28;100.00;101024.19;4921208;29;20361;-76
2021/06/11 06:09:50;;;;;;;19.25;13.65;;;;;;;24.09;100.00;101019.66;4907797;29;20099;-76
2021/06/11 06:12:36;;;;;;;17.38;13.00;;;;;;;24.62;100.00;101030.22;4909118;29;20028;-76
2021/06/11 06:15:22;;;;;;;15.73;10.07;;;;;;;23.42;100.00;101023.28;4908906;29;20364;-76
2021/06/11 06:18:08;;;;;;;16.08;11.15;;;;;;;23.33;100.00;101031.91;4907727;29;20107;-76
2021/06/11 06:20:54;;;;;;;12.52;10.50;;;;;;;23.42;100.00;101022.44;4920659;29;20040;-76
2021/06/11 06:23:40;;;;;;;16.05;10.00;;;;;;;24.24;100.00;101021.31;4907326;29;20032;-77
2021/06/11 06:26:27;;;;;;;16.13;8.32;;;;;;;24.81;100.00;101033.31;4920858;29;20047;-76
2021/06/11 06:29:13;;;;;;;9.75;7.75;;;;;;;23.85;100.00;101026.63;4921514;29;20024;-76
2021/06/11 06:31:58;;;;;;;15.52;9.73;;;;;;;24.04;100.00;101033.38;4922436;29;20032;-75
2021/06/11 06:34:44;;;;;;;16.40;10.00;;;;;;;24.54;100.00;101030.75;4921397;29;20056;-76
2021/06/11 06:37:30;;;;;;;16.40;9.40;;;;;;;24.62;100.00;101030.22;4921000;29;20036;-77
2021/06/11 06:40:16;;;;;;;17.65;9.43;;;;;;;24.80;100.00;101031.63;4907561;29;20414;-77
2021/06/11 06:43:02;;;;;;;16.50;9.45;;;;;;;24.95;100.00;101027.84;4921034;29;20453;-76
2021/06/11 06:45:48;;;;;;;15.05;9.10;;;;;;;25.18;100.00;101025.22;4906790;29;20338;-75
2021/06/11 06:48:36;;;;;;;14.30;10.98;;;;;;;25.06;100.00;101025.22;4921266;29;20032;-75
2021/06/11 06:51:23;;;;;;;16.10;8.50;;;;;;;25.56;100.00;101028.63;4921893;29;20401;-76
2021/06/11 06:54:09;;;;;;;11.48;9.15;;;;;;;24.99;100.00;101029.34;4921789;29;20043;-75
2021/06/11 06:56:55;;;;;;;13.60;8.35;;;;;;;25.50;100.00;101028.22;4921801;29;20043;-75
2021/06/11 06:59:41;;;;;;;14.82;9.70;;;;;;;25.54;100.00;101022.53;4920842;29;20032;-75
2021/06/11 07:02:27;;;;;;;14.45;10.00;;;;;;;24.75;100.00;101023.06;4920368;29;20042;-76
2021/06/11 07:05:15;;;;;;;42.22;33.67;;;;;;;25.77;100.00;101018.13;4919196;29;20487;-76
2021/06/11 07:08:00;;;;;;;16.30;11.15;;;;;;;24.96;100.00;101024.19;4920220;29;20040;-76
2021/06/11 07:10:46;;;;;;;16.15;9.18;;;;;;;24.53;100.00;101017.44;4922718;29;20090;-76
2021/06/11 07:13:32;;;;;;;9.10;8.05;;;;;;;25.13;100.00;101024.69;4923184;29;20469;-76
2021/06/11 07:16:18;;;;;;;9.30;6.90;;;;;;;24.91;100.00;101021.84;4922063;29;20383;-76
2021/06/11 07:19:03;;;;;;;10.27;6.93;;;;;;;25.55;100.00;101010.81;4921365;29;20115;-77
2021/06/11 07:21:49;;;;;;;9.70;5.75;;;;;;;25.60;100.00;101014.00;4920311;29;20043;-76
2021/06/11 07:24:37;;;;;;;7.90;5.90;;;;;;;25.22;100.00;101012.41;4920970;29;20114;-77
2021/06/11 07:27:22;;;;;;;6.85;6.10;;;;;;;24.96;100.00;101014.34;4919634;29;20032;-77
2021/06/11 07:30:10;;;;;;;7.30;5.97;;;;;;;25.88;100.00;101016.34;4920490;29;20059;-77
2021/06/11 07:32:56;;;;;;;11.63;6.30;;;;;;;25.65;100.00;101014.53;4919350;29;20036;-77
2021/06/11 07:35:41;;;;;;;7.05;5.65;;;;;;;25.83;100.00;101014.97;4920278;29;20036;-77
2021/06/11 07:38:27;;;;;;;8.88;5.63;;;;;;;25.85;100.00;101016.59;4920421;29;20024;-77
2021/06/11 07:41:13;;;;;;;7.55;5.68;;;;;;;25.92;100.00;101015.13;4920096;29;20042;-77
2021/06/11 07:43:59;;;;;;;8.70;6.03;;;;;;;25.83;100.00;101020.34;4920271;29;20137;-77
2021/06/11 07:46:44;;;;;;;8.07;5.82;;;;;;;25.54;100.00;101017.16;4918817;29;20453;-76
2021/06/11 07:49:30;;;;;;;6.38;5.63;;;;;;;25.44;100.00;101010.75;4920243;29;20035;-76
2021/06/11 07:52:16;;;;;;;10.88;5.70;;;;;;;26.54;100.00;101021.91;4919728;29;20024;-77
2021/06/11 07:55:05;;;;;;;7.85;5.00;;;;;;;26.40;100.00;101018.59;4919994;29;20438;-75
2021/06/11 07:57:55;;;;;;;6.43;5.30;;;;;;;26.89;96.79;101024.53;4918873;29;20401;-75
2021/06/11 08:00:41;;;;;;;11.50;5.45;;;;;;;26.29;100.00;101013.19;4919361;29;20035;-76
2021/06/11 08:03:26;;;;;;;8.50;5.50;;;;;;;26.50;100.00;101016.88;4919966;29;20074;-76
2021/06/11 08:06:12;;;;;;;12.05;5.95;;;;;;;26.83;98.93;101017.81;4919772;29;20027;-76
2021/06/11 08:09:07;;;;;;;10.07;5.32;;;;;;;27.16;99.15;101020.47;4920112;29;20085;-76
2021/06/11 08:11:53;;;;;;;11.13;5.25;;;;;;;27.10;98.15;101017.41;4906052;29;20090;-76
2021/06/11 08:14:39;;;;;;;9.25;4.85;;;;;;;26.68;97.42;101021.69;4919966;29;20106;-76
2021/06/11 08:17:25;;;;;;;9.85;5.88;;;;;;;27.21;94.15;101020.97;4918724;29;20032;-76
2021/06/11 08:20:14;;;;;;;5.40;4.85;;;;;;;27.57;92.66;101011.72;4905653;29;20505;-76
2021/06/11 08:23:00;;;;;;;7.57;4.20;;;;;;;28.18;84.47;101015.50;4919133;29;20454;-76
2021/06/11 08:25:46;;;;;;;4.65;4.00;;;;;;;28.40;77.93;101026.16;4905386;29;20076;-76
2021/06/11 08:28:31;;;;;;;6.38;3.95;;;;;;;27.99;81.22;101021.59;4905355;29;20181;-76
2021/06/11 08:31:17;;;;;;;9.05;4.20;;;;;;;27.98;79.21;101021.72;4919459;29;20028;-76
2021/06/11 08:34:03;;;;;;;7.65;5.18;;;;;;;28.32;82.15;101032.19;4904938;29;20536;-76
2021/06/11 08:36:49;;;;;;;7.40;4.20;;;;;;;27.27;82.26;101030.38;4919844;29;20468;-76
2021/06/11 08:39:35;;;;;;;6.45;4.25;;;;;;;27.97;80.96;101023.59;4917987;29;20043;-76
2021/06/11 08:42:30;;;;;;;5.15;4.63;;;;;;;28.40;82.92;101018.91;4918429;29;20024;-76
2021/06/11 08:45:17;;;;;;;9.02;5.30;;;;;;;28.98;80.00;101023.63;4904803;29;20047;-76
2021/06/11 08:48:03;;;;;;;10.25;4.80;;;;;;;28.73;79.86;101028.63;4918950;29;20472;-76
2021/06/11 08:50:49;;;;;;;10.23;5.00;;;;;;;28.77;79.15;101024.69;4919403;29;20032;-76
2021/06/11 08:53:36;;;;;;;5.35;4.40;;;;;;;28.58;76.50;101035.38;4918896;29;20028;-76
2021/06/11 08:56:22;;;;;;;8.02;4.30;;;;;;;28.12;76.91;101019.56;4918828;29;20044;-76
2021/06/11 08:59:08;;;;;;;5.55;4.25;;;;;;;27.57;81.10;101018.94;4918166;29;20039;-77
2021/06/11 09:01:54;;;;;;;6.97;4.60;;;;;;;27.54;81.38;101014.66;4919272;29;20123;-75
2021/06/11 09:04:42;;;;;;;5.80;5.15;;;;;;;27.13;85.48;101022.56;4918429;29;20107;-75
2021/06/11 09:07:31;;;;;;;7.10;4.90;;;;;;;27.36;86.33;101019.72;4919073;29;20032;-75
2021/06/11 09:10:23;;;;;;;7.90;4.80;;;;;;;27.80;82.90;101016.00;4904614;29;20032;-75
2021/06/11 09:13:08;;;;;;;7.88;4.95;;;;;;;28.34;79.79;101014.06;4919010;29;20038;-75
2021/06/11 09:16:16;;;;;;;7.07;5.22;;;;;;;28.39;80.01;101013.63;4918096;29;20059;-75
2021/06/11 09:19:30;;;;;;;5.30;4.80;;;;;;;28.14;82.70;101012.22;4918860;29;20517;-75
2021/06/11 09:27:11;;;;;;;;;;;;;;;;;;;;;
2021/06/11 09:37:30;;;;;;;6.95;5.50;;;;;;;27.54;90.95;100993.13;4910056;29;20063;-76
2021/06/11 09:40:16;;;;;;;10.05;5.57;;;;;;;27.29;92.58;100998.81;4917992;29;20115;-76
2021/06/11 09:43:03;;;;;;;6.38;5.03;;;;;;;27.53;93.90;100991.41;4918075;29;20028;-76
2021/06/11 09:46:12;;;;;;;5.88;5.28;;;;;;;27.51;89.63;100985.28;4904267;29;20381;-76
2021/06/11 09:48:58;;;;;;;12.98;6.13;;;;;;;27.32;91.80;100977.88;4918434;29;20091;-75
2021/06/11 09:52:02;;;;;;;5.40;4.90;;;;;;;27.54;89.90;100982.34;4904414;29;20074;-76
2021/06/11 09:54:48;;;;;;;6.60;5.03;;;;;;;27.77;87.94;100980.41;4917650;29;20040;-76
2021/06/11 09:57:36;;;;;;;8.07;5.25;;;;;;;27.80;87.24;100970.22;4918451;29;20070;-76
2021/06/11 10:00:29;;;;;;;6.50;5.22;;;;;;;27.48;87.46;100972.06;4918273;29;20035;-75
2021/06/11 10:03:39;;;;;;;7.43;5.05;;;;;;;27.43;87.88;100968.94;4918120;29;20127;-76
2021/06/11 10:06:30;;;;;;;6.97;5.22;;;;;;;27.56;85.70;100968.75;4918220;29;20060;-75
2021/06/11 10:09:16;;;;;;;7.25;5.30;;;;;;;27.62;90.87;100965.53;4918654;29;20028;-76
2021/06/11 10:12:02;;;;;;;6.13;5.30;;;;;;;28.33;87.41;100966.50;4918568;29;20387;-76
2021/06/11 10:14:48;;;;;;;5.70;5.10;;;;;;;28.34;86.77;100965.53;4918365;29;20059;-74
2021/06/11 10:17:34;;;;;;;6.30;5.05;;;;;;;28.14;86.07;100962.84;4917955;29;20036;-76
2021/06/11 10:20:20;;;;;;;6.50;5.80;;;;;;;27.97;90.58;100960.75;4904919;29;20036;-76
2021/06/11 10:23:08;;;;;;;7.38;5.82;;;;;;;27.88;91.65;100953.47;4917732;29;20028;-75
2021/06/11 10:25:55;;;;;;;7.57;6.10;;;;;;;27.43;94.60;100945.56;4918369;29;20024;-76
2021/06/11 10:28:44;;;;;;;10.90;5.93;;;;;;;27.78;92.89;100941.72;4917103;29;20036;-77
2021/06/11 10:31:36;;;;;;;6.00;5.50;;;;;;;27.51;94.80;100941.38;4906241;29;20028;-77
2021/06/11 10:34:52;;;;;;;7.65;6.20;;;;;;;27.79;94.00;100938.91;4920448;29;20115;-77
2021/06/11 10:37:42;;;;;;;11.57;6.72;;;;;;;27.56;97.09;100936.47;4905548;29;20116;-77
2021/06/11 10:40:43;;;;;;;8.45;5.95;;;;;;;28.35;94.17;100917.84;4917971;29;20521;-75
2021/06/11 10:43:34;;;;;;;7.65;6.35;;;;;;;28.18;95.01;100919.34;4921289;29;20040;-76
2021/06/11 10:46:21;;;;;;;6.97;6.22;;;;;;;27.78;97.17;100912.97;4907857;29;20028;-76
2021/06/11 10:49:11;;;;;;;8.48;6.85;;;;;;;28.29;95.09;100907.63;4921667;29;20038;-76
2021/06/11 10:51:57;;;;;;;8.13;6.20;;;;;;;28.23;96.19;100908.16;4908435;29;20107;-77
2021/06/11 10:57:53;;;;;;;9.48;6.10;;;;;;;27.99;96.60;100911.13;4922385;29;20024;-77
2021/06/11 11:00:41;;;;;;;6.90;5.70;;;;;;;28.25;85.02;100904.31;4921029;29;20024;-77
2021/06/11 11:03:30;;;;;;;7.57;5.95;;;;;;;27.99;87.34;100900.38;4921971;29;20385;-77
2021/06/11 11:06:28;;;;;;;8.20;6.10;;;;;;;27.43;91.59;100897.13;4907743;29;20373;-77
2021/06/11 11:09:14;;;;;;;7.68;6.03;;;;;;;27.59;92.42;100899.34;4920945;29;20047;-77
2021/06/11 11:12:00;;;;;;;7.80;5.90;;;;;;;27.88;92.62;100892.34;4920634;29;20099;-77
2021/06/11 11:14:46;;;;;;;8.45;5.75;;;;;;;28.14;88.44;100887.41;4920779;29;20036;-76
2021/06/11 11:17:52;;;;;;;6.93;5.57;;;;;;;28.41;82.30;100880.44;4920030;29;20064;-77
2021/06/11 11:20:40;;;;;;;7.45;5.57;;;;;;;27.83;78.01;100881.13;4906700;29;20115;-77
2021/06/11 11:23:27;;;;;;;6.90;5.60;;;;;;;27.64;79.13;100872.88;4920669;29;20454;-76
2021/06/11 11:26:13;;;;;;;6.97;6.18;;;;;;;28.04;82.04;100868.47;4906840;29;20032;-75
2021/06/11 11:28:59;;;;;;;8.15;5.93;;;;;;;28.49;79.72;100867.16;4906321;29;20122;-76
2021/06/11 11:31:48;;;;;;;6.07;5.53;;;;;;;28.14;79.83;100871.22;4920690;29;20028;-75
2021/06/11 11:34:33;;;;;;;5.70;5.18;;;;;;;29.23;75.24;100871.16;4906023;29;20359;-76
2021/06/11 11:37:19;;;;;;;6.32;5.50;;;;;;;29.61;73.13;100877.41;4906814;29;20032;-76
2021/06/11 11:40:06;;;;;;;9.07;5.88;;;;;;;29.28;75.12;100869.72;4918945;29;20032;-76
2021/06/11 11:42:53;;;;;;;10.13;5.57;;;;;;;29.19;72.04;100867.91;4920507;29;20406;-76
2021/06/11 11:45:39;;;;;;;8.30;5.18;;;;;;;29.90;67.63;100855.75;4919850;29;20028;-76
2021/06/11 11:48:25;;;;;;;6.95;4.97;;;;;;;29.80;66.17;100865.72;4920440;29;20028;-77
2021/06/11 11:51:13;;;;;;;6.47;4.75;;;;;;;29.28;65.73;100863.47;4920643;29;20533;-77
2021/06/11 11:54:00;;;;;;;4.88;4.47;;;;;;;29.87;64.83;100867.72;4920240;29;20482;-77
2021/06/11 11:56:46;;;;;;;7.10;5.15;;;;;;;29.83;65.10;100863.59;4920498;29;20453;-76
2021/06/11 11:59:32;;;;;;;6.82;5.20;;;;;;;29.88;66.72;100861.31;4920904;29;20473;-76
2021/06/11 12:02:18;;;;;;;5.13;4.38;;;;;;;29.08;64.68;100861.75;4905805;29;20043;-75
2021/06/11 12:05:06;;;;;;;7.43;4.90;;;;;;;28.75;65.41;100862.09;4920534;29;20040;-77
2021/06/11 12:07:52;;;;;;;7.75;4.97;;;;;;;28.71;65.18;100860.69;4907975;29;20476;-77
2021/06/11 12:10:38;;;;;;;11.07;6.43;;;;;;;28.97;65.23;100859.19;4905632;29;20360;-77
2021/06/11 12:13:26;;;;;;;6.65;4.80;;;;;;;28.97;67.52;100857.31;4920339;29;20034;-77
2021/06/11 12:16:12;;;;;;;7.22;5.13;;;;;;;29.41;64.67;100864.06;4919585;29;20110;-77
2021/06/11 12:18:58;;;;;;;5.25;4.63;;;;;;;29.54;60.93;100859.22;4906929;29;20450;-77
2021/06/11 12:21:44;;;;;;;4.93;4.40;;;;;;;28.31;63.64;100849.03;4905770;29;20062;-76
2021/06/11 12:24:30;;;;;;;5.22;4.72;;;;;;;29.07;63.64;100858.22;4919101;29;20130;-76
2021/06/11 12:27:16;;;;;;;8.15;4.13;;;;;;;28.74;62.78;100855.00;4919792;29;20373;-76
2021/06/11 12:30:03;;;;;;;9.65;5.03;;;;;;;29.22;62.09;100854.13;4919373;29;20339;-76
2021/06/11 12:32:49;;;;;;;5.65;4.15;;;;;;;29.01;62.91;100858.78;4905539;29;20028;-76
2021/06/11 12:35:34;;;;;;;5.30;4.60;;;;;;;28.74;65.72;100847.78;4919256;29;20024;-76
2021/06/11 12:38:20;;;;;;;5.95;4.40;;;;;;;28.51;65.83;100851.69;4905750;29;20134;-76
2021/06/11 12:41:07;;;;;;;4.60;4.20;;;;;;;29.10;64.80;100859.78;4919107;29;20410;-78
2021/06/11 12:46:57;;;;;;;6.30;4.25;;;;;;;29.30;63.69;100848.00;4918771;29;20115;-76
2021/06/11 12:49:42;;;;;;;6.07;4.60;;;;;;;28.75;65.71;100841.41;4919536;29;20042;-76
2021/06/11 12:52:28;;;;;;;5.75;4.38;;;;;;;28.58;65.69;100839.38;4917713;29;20060;-76
2021/06/11 12:55:14;;;;;;;5.25;4.57;;;;;;;29.05;66.38;100833.22;4919326;29;20024;-76
2021/06/11 12:58:00;;;;;;;5.70;4.63;;;;;;;29.35;65.04;100826.81;4918372;29;20351;-77
2021/06/11 13:00:46;;;;;;;5.80;4.88;;;;;;;29.53;65.14;100833.22;4918972;29;20374;-77
2021/06/11 13:03:31;;;;;;;6.25;5.13;;;;;;;29.10;66.98;100832.81;4917419;29;20059;-77